sensor_id;sensor_type;location;lat;lon;timestamp;P1;durP1;ratioP1;P2;durP2;ratioP2
22219;SDS011;11279;48.364;10.904;2022-11-15T00:00:39;21.33;;;11.23;;
22219;SDS011;11279;48.364;10.904;2022-11-15T00:01:40;21.00;;;11.57;;
22219;SDS011;11279;48.364;10.904;2022-11-15T00:02:40;19.37;;;12.07;;
22219;SDS011;11279;48.364;10.904;2022-11-15T00:03:41;19.87;;;11.40;;
22219;SDS011;11279;48.364;10.904;2022-11-15T00:04:41;19.63;;;12.20;;
22219;SDS011;11279;48.364;10.904;2022-11-15T00:05:42;17.83;;;11.00;;
22219;SDS011;11279;48.364;10.904;2022-11-15T00:06:42;18.57;;;11.53;;
22219;SDS011;11279;48.364;10.904;2022-11-15T00:07:42;20.63;;;11.27;;
22219;SDS011;11279;48.364;10.904;2022-11-15T00:08:43;18.77;;;12.00;;
22219;SDS011;11279;48.364;10.904;2022-11-15T00:09:43;18.30;;;11.30;;
22219;SDS011;11279;48.364;10.904;2022-11-15T00:10:53;20.13;;;11.80;;
22219;SDS011;11279;48.364;10.904;2022-11-15T00:11:57;21.00;;;12.85;;
22219;SDS011;11279;48.364;10.904;2022-11-15T00:12:57;21.47;;;12.70;;
22219;SDS011;11279;48.364;10.904;2022-11-15T00:13:58;16.77;;;11.20;;
22219;SDS011;11279;48.364;10.904;2022-11-15T00:14:58;17.53;;;11.47;;
22219;SDS011;11279;48.364;10.904;2022-11-15T00:15:59;18.63;;;11.20;;
22219;SDS011;11279;48.364;10.904;2022-11-15T00:17:01;19.88;;;11.82;;
22219;SDS011;11279;48.364;10.904;2022-11-15T00:18:01;18.70;;;11.23;;
22219;SDS011;11279;48.364;10.904;2022-11-15T00:19:02;18.88;;;10.85;;
22219;SDS011;11279;48.364;10.904;2022-11-15T00:20:03;16.77;;;10.43;;
22219;SDS011;11279;48.364;10.904;2022-11-15T00:21:05;22.88;;;11.20;;
22219;SDS011;11279;48.364;10.904;2022-11-15T00:22:07;20.27;;;12.40;;
22219;SDS011;11279;48.364;10.904;2022-11-15T00:23:07;18.03;;;11.73;;
22219;SDS011;11279;48.364;10.904;2022-11-15T00:24:07;18.17;;;11.57;;
22219;SDS011;11279;48.364;10.904;2022-11-15T00:25:08;20.40;;;11.80;;
22219;SDS011;11279;48.364;10.904;2022-11-15T00:26:12;20.73;;;11.73;;
22219;SDS011;11279;48.364;10.904;2022-11-15T00:27:13;18.05;;;11.50;;
22219;SDS011;11279;48.364;10.904;2022-11-15T00:28:13;17.70;;;10.70;;
22219;SDS011;11279;48.364;10.904;2022-11-15T00:29:14;19.13;;;11.70;;
22219;SDS011;11279;48.364;10.904;2022-11-15T00:30:14;20.60;;;11.93;;
22219;SDS011;11279;48.364;10.904;2022-11-15T00:31:15;17.70;;;10.77;;
22219;SDS011;11279;48.364;10.904;2022-11-15T00:32:15;18.43;;;12.07;;
22219;SDS011;11279;48.364;10.904;2022-11-15T00:33:16;20.97;;;11.23;;
22219;SDS011;11279;48.364;10.904;2022-11-15T00:34:16;18.30;;;11.53;;
22219;SDS011;11279;48.364;10.904;2022-11-15T00:35:17;16.03;;;10.17;;
22219;SDS011;11279;48.364;10.904;2022-11-15T00:36:18;17.60;;;11.10;;
22219;SDS011;11279;48.364;10.904;2022-11-15T00:37:18;18.23;;;10.80;;
22219;SDS011;11279;48.364;10.904;2022-11-15T00:38:19;18.47;;;11.80;;
22219;SDS011;11279;48.364;10.904;2022-11-15T00:39:19;17.87;;;11.17;;
22219;SDS011;11279;48.364;10.904;2022-11-15T00:40:19;17.03;;;10.50;;
22219;SDS011;11279;48.364;10.904;2022-11-15T00:41:20;17.50;;;11.03;;
22219;SDS011;11279;48.364;10.904;2022-11-15T00:42:20;18.57;;;10.90;;
22219;SDS011;11279;48.364;10.904;2022-11-15T00:43:21;17.93;;;9.93;;
22219;SDS011;11279;48.364;10.904;2022-11-15T00:44:21;18.00;;;10.93;;
22219;SDS011;11279;48.364;10.904;2022-11-15T00:45:22;18.00;;;10.60;;
22219;SDS011;11279;48.364;10.904;2022-11-15T00:46:22;15.93;;;10.27;;
22219;SDS011;11279;48.364;10.904;2022-11-15T00:47:23;15.27;;;10.23;;
22219;SDS011;11279;48.364;10.904;2022-11-15T00:48:23;16.30;;;10.23;;
22219;SDS011;11279;48.364;10.904;2022-11-15T00:49:24;17.87;;;10.57;;
22219;SDS011;11279;48.364;10.904;2022-11-15T00:50:24;19.80;;;12.07;;
22219;SDS011;11279;48.364;10.904;2022-11-15T00:51:25;19.07;;;10.80;;
22219;SDS011;11279;48.364;10.904;2022-11-15T00:52:25;17.43;;;10.57;;
22219;SDS011;11279;48.364;10.904;2022-11-15T00:53:26;20.53;;;10.70;;
22219;SDS011;11279;48.364;10.904;2022-11-15T00:54:26;20.27;;;11.33;;
22219;SDS011;11279;48.364;10.904;2022-11-15T00:55:27;18.90;;;10.63;;
22219;SDS011;11279;48.364;10.904;2022-11-15T00:56:27;17.23;;;10.63;;
22219;SDS011;11279;48.364;10.904;2022-11-15T00:57:27;18.10;;;10.53;;
22219;SDS011;11279;48.364;10.904;2022-11-15T00:58:28;15.43;;;10.00;;
22219;SDS011;11279;48.364;10.904;2022-11-15T00:59:28;17.67;;;10.53;;
22219;SDS011;11279;48.364;10.904;2022-11-15T01:00:29;16.77;;;10.20;;
22219;SDS011;11279;48.364;10.904;2022-11-15T01:01:29;18.30;;;10.63;;
22219;SDS011;11279;48.364;10.904;2022-11-15T01:02:30;16.37;;;10.67;;
22219;SDS011;11279;48.364;10.904;2022-11-15T01:03:32;16.63;;;10.10;;
22219;SDS011;11279;48.364;10.904;2022-11-15T01:04:33;18.40;;;10.05;;
22219;SDS011;11279;48.364;10.904;2022-11-15T01:05:33;16.43;;;10.40;;
22219;SDS011;11279;48.364;10.904;2022-11-15T01:06:34;15.53;;;9.90;;
22219;SDS011;11279;48.364;10.904;2022-11-15T01:07:34;16.87;;;10.53;;
22219;SDS011;11279;48.364;10.904;2022-11-15T01:08:35;16.87;;;10.73;;
22219;SDS011;11279;48.364;10.904;2022-11-15T01:09:35;15.33;;;9.63;;
22219;SDS011;11279;48.364;10.904;2022-11-15T01:10:36;14.77;;;10.03;;
22219;SDS011;11279;48.364;10.904;2022-11-15T01:11:37;16.30;;;9.53;;
22219;SDS011;11279;48.364;10.904;2022-11-15T01:12:37;16.47;;;10.00;;
22219;SDS011;11279;48.364;10.904;2022-11-15T01:13:38;16.77;;;9.73;;
22219;SDS011;11279;48.364;10.904;2022-11-15T01:14:39;17.15;;;10.38;;
22219;SDS011;11279;48.364;10.904;2022-11-15T01:15:40;19.10;;;10.53;;
22219;SDS011;11279;48.364;10.904;2022-11-15T01:16:42;17.73;;;9.43;;
22219;SDS011;11279;48.364;10.904;2022-11-15T01:17:42;14.57;;;9.52;;
22219;SDS011;11279;48.364;10.904;2022-11-15T01:18:43;16.40;;;10.50;;
22219;SDS011;11279;48.364;10.904;2022-11-15T01:19:43;15.27;;;9.40;;
22219;SDS011;11279;48.364;10.904;2022-11-15T01:20:44;14.70;;;9.67;;
22219;SDS011;11279;48.364;10.904;2022-11-15T01:21:44;14.97;;;9.40;;
22219;SDS011;11279;48.364;10.904;2022-11-15T01:22:44;13.90;;;8.90;;
22219;SDS011;11279;48.364;10.904;2022-11-15T01:23:45;14.43;;;9.03;;
22219;SDS011;11279;48.364;10.904;2022-11-15T01:24:45;15.00;;;9.83;;
22219;SDS011;11279;48.364;10.904;2022-11-15T01:25:46;15.67;;;9.00;;
22219;SDS011;11279;48.364;10.904;2022-11-15T01:26:46;16.87;;;9.40;;
22219;SDS011;11279;48.364;10.904;2022-11-15T01:27:46;13.87;;;8.70;;
22219;SDS011;11279;48.364;10.904;2022-11-15T01:28:47;14.77;;;9.03;;
22219;SDS011;11279;48.364;10.904;2022-11-15T01:29:47;14.27;;;9.00;;
22219;SDS011;11279;48.364;10.904;2022-11-15T01:30:48;14.17;;;8.80;;
22219;SDS011;11279;48.364;10.904;2022-11-15T01:31:48;14.37;;;8.70;;
22219;SDS011;11279;48.364;10.904;2022-11-15T01:32:49;13.33;;;8.50;;
22219;SDS011;11279;48.364;10.904;2022-11-15T01:33:49;13.27;;;8.77;;
22219;SDS011;11279;48.364;10.904;2022-11-15T01:34:49;13.57;;;8.70;;
22219;SDS011;11279;48.364;10.904;2022-11-15T01:35:50;13.97;;;8.43;;
22219;SDS011;11279;48.364;10.904;2022-11-15T01:36:50;14.87;;;8.57;;
22219;SDS011;11279;48.364;10.904;2022-11-15T01:37:51;16.47;;;9.77;;
22219;SDS011;11279;48.364;10.904;2022-11-15T01:38:58;15.17;;;9.27;;
22219;SDS011;11279;48.364;10.904;2022-11-15T01:39:58;13.70;;;8.73;;
22219;SDS011;11279;48.364;10.904;2022-11-15T01:40:59;16.13;;;9.83;;
22219;SDS011;11279;48.364;10.904;2022-11-15T01:41:59;13.10;;;8.50;;
22219;SDS011;11279;48.364;10.904;2022-11-15T01:43:18;15.70;;;9.43;;
22219;SDS011;11279;48.364;10.904;2022-11-15T01:44:52;14.48;;;8.35;;
22219;SDS011;11279;48.364;10.904;2022-11-15T01:45:52;15.02;;;8.90;;
22219;SDS011;11279;48.364;10.904;2022-11-15T01:47:51;14.73;;;8.82;;
22219;SDS011;11279;48.364;10.904;2022-11-15T01:48:49;15.38;;;8.52;;
22219;SDS011;11279;48.364;10.904;2022-11-15T01:50:07;13.80;;;8.07;;
22219;SDS011;11279;48.364;10.904;2022-11-15T01:51:10;14.55;;;8.88;;
22219;SDS011;11279;48.364;10.904;2022-11-15T01:52:13;15.90;;;9.48;;
22219;SDS011;11279;48.364;10.904;2022-11-15T01:53:16;16.58;;;9.52;;
22219;SDS011;11279;48.364;10.904;2022-11-15T01:54:18;14.63;;;9.57;;
22219;SDS011;11279;48.364;10.904;2022-11-15T01:55:21;17.20;;;10.70;;
22219;SDS011;11279;48.364;10.904;2022-11-15T01:56:24;16.10;;;10.35;;
22219;SDS011;11279;48.364;10.904;2022-11-15T01:57:26;17.70;;;10.25;;
22219;SDS011;11279;48.364;10.904;2022-11-15T01:58:26;17.73;;;9.77;;
22219;SDS011;11279;48.364;10.904;2022-11-15T01:59:27;16.10;;;9.37;;
22219;SDS011;11279;48.364;10.904;2022-11-15T02:00:28;16.17;;;9.63;;
22219;SDS011;11279;48.364;10.904;2022-11-15T02:01:30;17.92;;;10.50;;
22219;SDS011;11279;48.364;10.904;2022-11-15T02:02:31;16.90;;;10.32;;
22219;SDS011;11279;48.364;10.904;2022-11-15T02:04:59;15.18;;;10.18;;
22219;SDS011;11279;48.364;10.904;2022-11-15T02:06:00;16.87;;;10.20;;
22219;SDS011;11279;48.364;10.904;2022-11-15T02:07:01;17.53;;;10.00;;
22219;SDS011;11279;48.364;10.904;2022-11-15T02:08:03;15.60;;;9.95;;
22219;SDS011;11279;48.364;10.904;2022-11-15T02:09:03;16.23;;;10.00;;
22219;SDS011;11279;48.364;10.904;2022-11-15T02:10:16;16.37;;;9.83;;
22219;SDS011;11279;48.364;10.904;2022-11-15T02:11:18;16.25;;;9.00;;
22219;SDS011;11279;48.364;10.904;2022-11-15T02:12:20;17.60;;;10.07;;
22219;SDS011;11279;48.364;10.904;2022-11-15T02:13:21;16.20;;;9.07;;
22219;SDS011;11279;48.364;10.904;2022-11-15T02:14:21;14.37;;;8.93;;
22219;SDS011;11279;48.364;10.904;2022-11-15T02:15:24;14.13;;;8.77;;
22219;SDS011;11279;48.364;10.904;2022-11-15T02:18:11;14.93;;;9.18;;
22219;SDS011;11279;48.364;10.904;2022-11-15T02:20:55;16.95;;;10.40;;
22219;SDS011;11279;48.364;10.904;2022-11-15T02:22:26;16.38;;;8.65;;
22219;SDS011;11279;48.364;10.904;2022-11-15T02:26:32;16.13;;;9.38;;
22219;SDS011;11279;48.364;10.904;2022-11-15T02:29:19;15.98;;;9.52;;
22219;SDS011;11279;48.364;10.904;2022-11-15T02:30:23;16.48;;;10.73;;
22219;SDS011;11279;48.364;10.904;2022-11-15T02:31:29;18.80;;;9.55;;
22219;SDS011;11279;48.364;10.904;2022-11-15T02:32:44;16.30;;;9.90;;
22219;SDS011;11279;48.364;10.904;2022-11-15T02:34:02;17.25;;;10.18;;
22219;SDS011;11279;48.364;10.904;2022-11-15T02:35:10;17.98;;;9.93;;
22219;SDS011;11279;48.364;10.904;2022-11-15T02:36:59;16.40;;;9.55;;
22219;SDS011;11279;48.364;10.904;2022-11-15T02:37:57;15.50;;;9.82;;
22219;SDS011;11279;48.364;10.904;2022-11-15T02:39:11;16.77;;;9.63;;
22219;SDS011;11279;48.364;10.904;2022-11-15T02:40:23;16.67;;;9.57;;
22219;SDS011;11279;48.364;10.904;2022-11-15T02:41:38;14.27;;;9.02;;
22219;SDS011;11279;48.364;10.904;2022-11-15T02:42:46;15.50;;;8.75;;
22219;SDS011;11279;48.364;10.904;2022-11-15T02:44:55;16.23;;;9.77;;
22219;SDS011;11279;48.364;10.904;2022-11-15T02:45:36;18.05;;;8.90;;
22219;SDS011;11279;48.364;10.904;2022-11-15T02:48:10;15.85;;;9.63;;
22219;SDS011;11279;48.364;10.904;2022-11-15T02:49:11;17.43;;;10.47;;
22219;SDS011;11279;48.364;10.904;2022-11-15T02:50:15;17.20;;;10.60;;
22219;SDS011;11279;48.364;10.904;2022-11-15T02:51:17;14.63;;;9.85;;
22219;SDS011;11279;48.364;10.904;2022-11-15T02:52:22;20.70;;;10.10;;
22219;SDS011;11279;48.364;10.904;2022-11-15T02:53:24;18.08;;;9.85;;
22219;SDS011;11279;48.364;10.904;2022-11-15T02:54:28;18.35;;;9.52;;
22219;SDS011;11279;48.364;10.904;2022-11-15T02:55:31;16.33;;;9.73;;
22219;SDS011;11279;48.364;10.904;2022-11-15T02:56:32;15.75;;;9.10;;
22219;SDS011;11279;48.364;10.904;2022-11-15T02:57:42;14.80;;;9.50;;
22219;SDS011;11279;48.364;10.904;2022-11-15T03:00:06;13.73;;;8.70;;
22219;SDS011;11279;48.364;10.904;2022-11-15T03:04:43;15.98;;;9.98;;
22219;SDS011;11279;48.364;10.904;2022-11-15T03:05:45;15.57;;;9.55;;
22219;SDS011;11279;48.364;10.904;2022-11-15T03:06:58;15.45;;;9.82;;
22219;SDS011;11279;48.364;10.904;2022-11-15T03:09:37;16.00;;;9.35;;
22219;SDS011;11279;48.364;10.904;2022-11-15T03:11:11;16.92;;;10.20;;
22219;SDS011;11279;48.364;10.904;2022-11-15T03:12:15;15.65;;;9.85;;
22219;SDS011;11279;48.364;10.904;2022-11-15T03:14:36;15.27;;;9.95;;
22219;SDS011;11279;48.364;10.904;2022-11-15T03:15:43;16.38;;;9.82;;
22219;SDS011;11279;48.364;10.904;2022-11-15T03:16:48;17.42;;;10.70;;
22219;SDS011;11279;48.364;10.904;2022-11-15T03:19:46;13.15;;;8.50;;
22219;SDS011;11279;48.364;10.904;2022-11-15T03:20:48;15.73;;;9.45;;
22219;SDS011;11279;48.364;10.904;2022-11-15T03:21:49;14.18;;;8.73;;
22219;SDS011;11279;48.364;10.904;2022-11-15T03:22:51;15.38;;;9.25;;
22219;SDS011;11279;48.364;10.904;2022-11-15T03:23:53;16.45;;;9.10;;
22219;SDS011;11279;48.364;10.904;2022-11-15T03:24:56;18.45;;;10.35;;
22219;SDS011;11279;48.364;10.904;2022-11-15T03:25:58;16.08;;;10.57;;
22219;SDS011;11279;48.364;10.904;2022-11-15T03:27:00;19.50;;;10.40;;
22219;SDS011;11279;48.364;10.904;2022-11-15T03:28:02;17.23;;;10.77;;
22219;SDS011;11279;48.364;10.904;2022-11-15T03:29:09;17.85;;;10.32;;
22219;SDS011;11279;48.364;10.904;2022-11-15T03:30:17;17.05;;;10.20;;
22219;SDS011;11279;48.364;10.904;2022-11-15T03:31:18;16.23;;;9.93;;
22219;SDS011;11279;48.364;10.904;2022-11-15T03:32:39;16.90;;;9.82;;
22219;SDS011;11279;48.364;10.904;2022-11-15T03:33:42;15.50;;;10.10;;
22219;SDS011;11279;48.364;10.904;2022-11-15T03:35:51;17.58;;;9.80;;
22219;SDS011;11279;48.364;10.904;2022-11-15T03:36:52;16.60;;;10.07;;
22219;SDS011;11279;48.364;10.904;2022-11-15T03:38:01;16.60;;;9.43;;
22219;SDS011;11279;48.364;10.904;2022-11-15T03:39:05;17.95;;;10.18;;
22219;SDS011;11279;48.364;10.904;2022-11-15T03:40:06;14.32;;;9.63;;
22219;SDS011;11279;48.364;10.904;2022-11-15T03:41:09;15.55;;;9.65;;
22219;SDS011;11279;48.364;10.904;2022-11-15T03:43:04;17.05;;;10.35;;
22219;SDS011;11279;48.364;10.904;2022-11-15T03:45:36;15.75;;;9.20;;
22219;SDS011;11279;48.364;10.904;2022-11-15T03:46:43;15.05;;;9.52;;
22219;SDS011;11279;48.364;10.904;2022-11-15T03:47:49;17.45;;;10.38;;
22219;SDS011;11279;48.364;10.904;2022-11-15T03:48:54;16.17;;;9.60;;
22219;SDS011;11279;48.364;10.904;2022-11-15T03:50:10;15.30;;;9.68;;
22219;SDS011;11279;48.364;10.904;2022-11-15T03:51:12;17.05;;;9.98;;
22219;SDS011;11279;48.364;10.904;2022-11-15T03:52:13;17.03;;;9.50;;
22219;SDS011;11279;48.364;10.904;2022-11-15T03:53:17;15.88;;;9.90;;
22219;SDS011;11279;48.364;10.904;2022-11-15T03:54:18;16.97;;;9.07;;
22219;SDS011;11279;48.364;10.904;2022-11-15T03:55:19;16.97;;;10.17;;
22219;SDS011;11279;48.364;10.904;2022-11-15T03:56:20;16.58;;;9.88;;
22219;SDS011;11279;48.364;10.904;2022-11-15T03:57:20;15.60;;;9.60;;
22219;SDS011;11279;48.364;10.904;2022-11-15T03:58:21;15.93;;;9.40;;
22219;SDS011;11279;48.364;10.904;2022-11-15T03:59:22;14.40;;;8.10;;
22219;SDS011;11279;48.364;10.904;2022-11-15T04:00:22;16.33;;;9.77;;
22219;SDS011;11279;48.364;10.904;2022-11-15T04:01:23;13.77;;;8.20;;
22219;SDS011;11279;48.364;10.904;2022-11-15T04:02:23;14.30;;;8.93;;
22219;SDS011;11279;48.364;10.904;2022-11-15T04:03:24;16.23;;;9.20;;
22219;SDS011;11279;48.364;10.904;2022-11-15T04:04:25;14.70;;;9.13;;
22219;SDS011;11279;48.364;10.904;2022-11-15T04:05:26;16.77;;;9.53;;
22219;SDS011;11279;48.364;10.904;2022-11-15T04:06:26;16.33;;;9.80;;
22219;SDS011;11279;48.364;10.904;2022-11-15T04:07:26;17.53;;;9.10;;
22219;SDS011;11279;48.364;10.904;2022-11-15T04:08:27;16.40;;;8.67;;
22219;SDS011;11279;48.364;10.904;2022-11-15T04:09:27;16.00;;;8.80;;
22219;SDS011;11279;48.364;10.904;2022-11-15T04:10:28;15.00;;;8.47;;
22219;SDS011;11279;48.364;10.904;2022-11-15T04:11:28;14.27;;;8.83;;
22219;SDS011;11279;48.364;10.904;2022-11-15T04:12:32;15.47;;;9.37;;
22219;SDS011;11279;48.364;10.904;2022-11-15T04:13:33;15.95;;;9.30;;
22219;SDS011;11279;48.364;10.904;2022-11-15T04:14:34;15.50;;;9.90;;
22219;SDS011;11279;48.364;10.904;2022-11-15T04:15:34;17.30;;;8.77;;
22219;SDS011;11279;48.364;10.904;2022-11-15T04:16:35;16.73;;;9.63;;
22219;SDS011;11279;48.364;10.904;2022-11-15T04:17:43;15.47;;;10.00;;
22219;SDS011;11279;48.364;10.904;2022-11-15T04:18:47;14.93;;;9.48;;
22219;SDS011;11279;48.364;10.904;2022-11-15T04:20:29;14.13;;;8.80;;
22219;SDS011;11279;48.364;10.904;2022-11-15T04:21:47;16.50;;;8.93;;
22219;SDS011;11279;48.364;10.904;2022-11-15T04:23:08;14.00;;;9.10;;
22219;SDS011;11279;48.364;10.904;2022-11-15T04:24:28;15.23;;;9.57;;
22219;SDS011;11279;48.364;10.904;2022-11-15T04:25:28;15.20;;;8.80;;
22219;SDS011;11279;48.364;10.904;2022-11-15T04:26:29;15.33;;;9.33;;
22219;SDS011;11279;48.364;10.904;2022-11-15T04:27:29;19.00;;;10.00;;
22219;SDS011;11279;48.364;10.904;2022-11-15T04:28:30;16.07;;;9.93;;
22219;SDS011;11279;48.364;10.904;2022-11-15T04:29:30;14.60;;;8.60;;
22219;SDS011;11279;48.364;10.904;2022-11-15T04:30:36;18.75;;;9.93;;
22219;SDS011;11279;48.364;10.904;2022-11-15T04:31:37;17.73;;;9.90;;
22219;SDS011;11279;48.364;10.904;2022-11-15T04:32:37;17.40;;;9.67;;
22219;SDS011;11279;48.364;10.904;2022-11-15T04:33:38;15.70;;;9.47;;
22219;SDS011;11279;48.364;10.904;2022-11-15T04:34:38;13.23;;;8.37;;
22219;SDS011;11279;48.364;10.904;2022-11-15T04:35:38;17.80;;;9.13;;
22219;SDS011;11279;48.364;10.904;2022-11-15T04:36:39;15.00;;;9.67;;
22219;SDS011;11279;48.364;10.904;2022-11-15T04:37:58;18.58;;;10.68;;
22219;SDS011;11279;48.364;10.904;2022-11-15T04:38:59;17.08;;;10.13;;
22219;SDS011;11279;48.364;10.904;2022-11-15T04:39:59;19.10;;;11.70;;
22219;SDS011;11279;48.364;10.904;2022-11-15T04:41:00;16.95;;;10.23;;
22219;SDS011;11279;48.364;10.904;2022-11-15T04:42:01;17.47;;;9.70;;
22219;SDS011;11279;48.364;10.904;2022-11-15T04:43:01;16.70;;;8.97;;
22219;SDS011;11279;48.364;10.904;2022-11-15T04:44:02;17.33;;;10.10;;
22219;SDS011;11279;48.364;10.904;2022-11-15T04:45:02;15.30;;;8.90;;
22219;SDS011;11279;48.364;10.904;2022-11-15T04:46:03;18.67;;;8.80;;
22219;SDS011;11279;48.364;10.904;2022-11-15T04:47:03;13.47;;;8.50;;
22219;SDS011;11279;48.364;10.904;2022-11-15T04:48:04;14.77;;;8.60;;
22219;SDS011;11279;48.364;10.904;2022-11-15T04:49:05;14.20;;;8.77;;
22219;SDS011;11279;48.364;10.904;2022-11-15T04:50:05;15.77;;;8.73;;
22219;SDS011;11279;48.364;10.904;2022-11-15T04:51:06;14.82;;;9.05;;
22219;SDS011;11279;48.364;10.904;2022-11-15T04:52:06;20.13;;;10.03;;
22219;SDS011;11279;48.364;10.904;2022-11-15T04:53:07;17.90;;;10.27;;
22219;SDS011;11279;48.364;10.904;2022-11-15T04:54:07;16.90;;;9.60;;
22219;SDS011;11279;48.364;10.904;2022-11-15T04:55:09;13.67;;;8.30;;
22219;SDS011;11279;48.364;10.904;2022-11-15T04:56:10;18.65;;;10.05;;
22219;SDS011;11279;48.364;10.904;2022-11-15T04:57:10;15.47;;;9.13;;
22219;SDS011;11279;48.364;10.904;2022-11-15T04:58:11;13.40;;;8.27;;
22219;SDS011;11279;48.364;10.904;2022-11-15T04:59:11;15.37;;;9.40;;
22219;SDS011;11279;48.364;10.904;2022-11-15T05:00:12;16.63;;;9.63;;
22219;SDS011;11279;48.364;10.904;2022-11-15T05:01:14;19.20;;;10.20;;
22219;SDS011;11279;48.364;10.904;2022-11-15T05:02:15;17.43;;;10.70;;
22219;SDS011;11279;48.364;10.904;2022-11-15T05:03:15;18.30;;;9.67;;
22219;SDS011;11279;48.364;10.904;2022-11-15T05:04:35;16.75;;;10.05;;
22219;SDS011;11279;48.364;10.904;2022-11-15T05:05:35;16.57;;;10.23;;
22219;SDS011;11279;48.364;10.904;2022-11-15T05:06:36;18.70;;;9.70;;
22219;SDS011;11279;48.364;10.904;2022-11-15T05:07:36;13.57;;;8.27;;
22219;SDS011;11279;48.364;10.904;2022-11-15T05:08:37;19.17;;;10.10;;
22219;SDS011;11279;48.364;10.904;2022-11-15T05:09:37;17.20;;;9.10;;
22219;SDS011;11279;48.364;10.904;2022-11-15T05:10:37;17.13;;;9.97;;
22219;SDS011;11279;48.364;10.904;2022-11-15T05:11:38;16.23;;;9.07;;
22219;SDS011;11279;48.364;10.904;2022-11-15T05:12:38;17.50;;;9.57;;
22219;SDS011;11279;48.364;10.904;2022-11-15T05:13:39;15.67;;;10.00;;
22219;SDS011;11279;48.364;10.904;2022-11-15T05:14:39;16.07;;;9.40;;
22219;SDS011;11279;48.364;10.904;2022-11-15T05:15:40;15.33;;;9.10;;
22219;SDS011;11279;48.364;10.904;2022-11-15T05:16:40;15.80;;;9.17;;
22219;SDS011;11279;48.364;10.904;2022-11-15T05:17:41;15.97;;;9.53;;
22219;SDS011;11279;48.364;10.904;2022-11-15T05:18:41;15.20;;;9.57;;
22219;SDS011;11279;48.364;10.904;2022-11-15T05:19:42;17.10;;;10.40;;
22219;SDS011;11279;48.364;10.904;2022-11-15T05:20:42;18.87;;;10.83;;
22219;SDS011;11279;48.364;10.904;2022-11-15T05:21:43;16.97;;;11.03;;
22219;SDS011;11279;48.364;10.904;2022-11-15T05:22:43;17.20;;;10.27;;
22219;SDS011;11279;48.364;10.904;2022-11-15T05:23:43;15.93;;;9.53;;
22219;SDS011;11279;48.364;10.904;2022-11-15T05:24:44;15.77;;;10.03;;
22219;SDS011;11279;48.364;10.904;2022-11-15T05:25:44;16.67;;;10.07;;
22219;SDS011;11279;48.364;10.904;2022-11-15T05:26:45;16.13;;;10.03;;
22219;SDS011;11279;48.364;10.904;2022-11-15T05:27:45;15.07;;;9.47;;
22219;SDS011;11279;48.364;10.904;2022-11-15T05:28:46;16.37;;;9.67;;
22219;SDS011;11279;48.364;10.904;2022-11-15T05:29:46;14.70;;;9.17;;
22219;SDS011;11279;48.364;10.904;2022-11-15T05:30:46;14.73;;;9.17;;
22219;SDS011;11279;48.364;10.904;2022-11-15T05:31:47;16.27;;;9.00;;
22219;SDS011;11279;48.364;10.904;2022-11-15T05:32:47;18.03;;;10.30;;
22219;SDS011;11279;48.364;10.904;2022-11-15T05:33:49;15.20;;;9.30;;
22219;SDS011;11279;48.364;10.904;2022-11-15T05:34:51;16.90;;;9.32;;
22219;SDS011;11279;48.364;10.904;2022-11-15T05:35:54;16.33;;;10.30;;
22219;SDS011;11279;48.364;10.904;2022-11-15T05:36:57;14.55;;;9.00;;
22219;SDS011;11279;48.364;10.904;2022-11-15T05:37:59;17.17;;;9.25;;
22219;SDS011;11279;48.364;10.904;2022-11-15T05:38:59;16.27;;;9.97;;
22219;SDS011;11279;48.364;10.904;2022-11-15T05:40:00;14.23;;;8.93;;
22219;SDS011;11279;48.364;10.904;2022-11-15T05:41:01;17.57;;;9.57;;
22219;SDS011;11279;48.364;10.904;2022-11-15T05:42:04;16.25;;;9.38;;
22219;SDS011;11279;48.364;10.904;2022-11-15T05:43:07;14.35;;;9.10;;
22219;SDS011;11279;48.364;10.904;2022-11-15T05:44:09;15.70;;;9.80;;
22219;SDS011;11279;48.364;10.904;2022-11-15T05:45:10;17.95;;;10.18;;
22219;SDS011;11279;48.364;10.904;2022-11-15T05:46:11;16.40;;;9.33;;
22219;SDS011;11279;48.364;10.904;2022-11-15T05:47:14;15.55;;;9.82;;
22219;SDS011;11279;48.364;10.904;2022-11-15T05:48:20;15.43;;;9.63;;
22219;SDS011;11279;48.364;10.904;2022-11-15T05:49:21;13.57;;;8.60;;
22219;SDS011;11279;48.364;10.904;2022-11-15T05:50:23;13.75;;;8.35;;
22219;SDS011;11279;48.364;10.904;2022-11-15T05:51:24;15.60;;;9.40;;
22219;SDS011;11279;48.364;10.904;2022-11-15T05:52:27;17.92;;;10.55;;
22219;SDS011;11279;48.364;10.904;2022-11-15T05:53:30;15.95;;;9.98;;
22219;SDS011;11279;48.364;10.904;2022-11-15T05:54:30;16.60;;;10.10;;
22219;SDS011;11279;48.364;10.904;2022-11-15T05:55:31;16.40;;;10.10;;
22219;SDS011;11279;48.364;10.904;2022-11-15T05:56:32;16.33;;;10.43;;
22219;SDS011;11279;48.364;10.904;2022-11-15T05:57:32;17.07;;;10.70;;
22219;SDS011;11279;48.364;10.904;2022-11-15T05:58:33;15.30;;;9.87;;
22219;SDS011;11279;48.364;10.904;2022-11-15T05:59:33;16.57;;;9.93;;
22219;SDS011;11279;48.364;10.904;2022-11-15T06:00:34;15.13;;;9.88;;
22219;SDS011;11279;48.364;10.904;2022-11-15T06:01:35;16.33;;;9.47;;
22219;SDS011;11279;48.364;10.904;2022-11-15T06:02:35;13.57;;;8.47;;
22219;SDS011;11279;48.364;10.904;2022-11-15T06:03:36;16.37;;;10.27;;
22219;SDS011;11279;48.364;10.904;2022-11-15T06:04:36;17.10;;;10.17;;
22219;SDS011;11279;48.364;10.904;2022-11-15T06:05:36;18.63;;;9.77;;
22219;SDS011;11279;48.364;10.904;2022-11-15T06:06:37;16.93;;;9.97;;
22219;SDS011;11279;48.364;10.904;2022-11-15T06:07:37;14.87;;;9.57;;
22219;SDS011;11279;48.364;10.904;2022-11-15T06:08:38;16.73;;;9.37;;
22219;SDS011;11279;48.364;10.904;2022-11-15T06:09:38;17.80;;;10.90;;
22219;SDS011;11279;48.364;10.904;2022-11-15T06:10:39;19.47;;;10.50;;
22219;SDS011;11279;48.364;10.904;2022-11-15T06:11:39;17.63;;;9.40;;
22219;SDS011;11279;48.364;10.904;2022-11-15T06:12:39;20.30;;;10.30;;
22219;SDS011;11279;48.364;10.904;2022-11-15T06:13:40;16.13;;;10.23;;
22219;SDS011;11279;48.364;10.904;2022-11-15T06:14:40;16.70;;;9.87;;
22219;SDS011;11279;48.364;10.904;2022-11-15T06:15:41;16.63;;;9.87;;
22219;SDS011;11279;48.364;10.904;2022-11-15T06:16:41;15.07;;;9.70;;
22219;SDS011;11279;48.364;10.904;2022-11-15T06:17:41;19.03;;;9.67;;
22219;SDS011;11279;48.364;10.904;2022-11-15T06:18:42;16.87;;;10.20;;
22219;SDS011;11279;48.364;10.904;2022-11-15T06:19:42;17.50;;;10.60;;
22219;SDS011;11279;48.364;10.904;2022-11-15T06:20:43;14.70;;;10.07;;
22219;SDS011;11279;48.364;10.904;2022-11-15T06:21:43;18.40;;;10.53;;
22219;SDS011;11279;48.364;10.904;2022-11-15T06:22:43;21.23;;;10.63;;
22219;SDS011;11279;48.364;10.904;2022-11-15T06:23:44;19.67;;;11.73;;
22219;SDS011;11279;48.364;10.904;2022-11-15T06:24:44;18.20;;;10.70;;
22219;SDS011;11279;48.364;10.904;2022-11-15T06:25:45;19.60;;;11.00;;
22219;SDS011;11279;48.364;10.904;2022-11-15T06:26:45;19.70;;;11.13;;
22219;SDS011;11279;48.364;10.904;2022-11-15T06:27:50;18.73;;;10.93;;
22219;SDS011;11279;48.364;10.904;2022-11-15T06:28:51;21.08;;;11.98;;
22219;SDS011;11279;48.364;10.904;2022-11-15T06:29:52;17.27;;;11.07;;